Time;durP1;ratioP1;P1;durP2;ratioP2;P2;SDS_P1;SDS_P2;PMS_P1;PMS_P2;Temp;Humidity;BMP_temperature;BMP_pressure;BME280_temperature;BME280_humidity;BME280_pressure;Samples;Min_cycle;Max_cycle;Signal;HPM_P1;HPM_P2
2022/07/26 00:00:16;;;;;;;5.67;1.40;;;19.10;99.90;;;;;;5014288;28;20208;-53
2022/07/26 00:02:44;;;;;;;5.83;1.70;;;19.20;99.90;;;;;;5000611;28;20200;-53
2022/07/26 00:05:15;;;;;;;7.07;1.60;;;19.20;99.90;;;;;;5016229;28;20211;-54
2022/07/26 00:07:43;;;;;;;7.87;1.90;;;19.20;99.90;;;;;;5012805;28;20244;-54
2022/07/26 00:10:11;;;;;;;6.40;1.60;;;19.10;99.90;;;;;;5015444;28;20638;-54
2022/07/26 00:12:38;;;;;;;6.30;1.47;;;19.10;99.90;;;;;;5011538;28;20652;-52
2022/07/26 00:15:09;;;;;;;9.83;2.27;;;19.10;99.90;;;;;;5031706;28;20197;-53
2022/07/26 00:17:36;;;;;;;8.60;2.00;;;19.20;99.90;;;;;;5027682;28;20682;-54
2022/07/26 00:20:04;;;;;;;5.67;1.47;;;19.20;99.90;;;;;;5012875;28;20207;-53
2022/07/26 00:22:34;;;;;;;6.00;1.20;;;19.00;99.90;;;;;;5015887;28;20207;-50
2022/07/26 00:25:07;;;;;;;4.87;1.70;;;19.00;99.90;;;;;;5018418;28;20216;-51
2022/07/26 00:27:37;;;;;;;6.43;1.23;;;19.00;99.90;;;;;;5016341;28;20734;-52
2022/07/26 00:30:06;;;;;;;5.23;1.47;;;19.00;99.90;;;;;;5010597;28;20256;-52
2022/07/26 00:32:33;;;;;;;3.93;1.47;;;19.00;99.90;;;;;;5011967;28;20582;-54
2022/07/26 00:35:00;;;;;;;4.23;1.50;;;18.90;99.90;;;;;;5012678;28;20208;-53
2022/07/26 00:37:31;;;;;;;6.97;1.83;;;18.90;99.90;;;;;;5014775;28;20215;-52
2022/07/26 00:39:58;;;;;;;6.90;1.53;;;18.90;99.90;;;;;;5011136;28;20214;-53
2022/07/26 00:42:25;;;;;;;6.03;1.70;;;18.90;99.90;;;;;;5021110;28;20274;-53
2022/07/26 00:44:53;;;;;;;5.90;2.00;;;18.90;99.90;;;;;;5029700;28;20236;-52
2022/07/26 00:47:20;;;;;;;5.73;1.67;;;18.80;99.90;;;;;;5011241;28;20205;-53
2022/07/26 00:49:47;;;;;;;7.70;1.70;;;18.80;99.90;;;;;;5011923;28;20694;-52
2022/07/26 00:52:16;;;;;;;7.10;1.93;;;18.90;99.90;;;;;;5014868;28;20209;-54
2022/07/26 00:54:45;;;;;;;7.47;1.97;;;18.90;99.90;;;;;;5047268;28;20228;-53
2022/07/26 00:57:13;;;;;;;7.30;1.63;;;18.80;99.90;;;;;;5012353;28;20206;-54
2022/07/26 00:59:41;;;;;;;8.70;1.90;;;19.00;99.90;;;;;;5014453;28;20219;-54
2022/07/26 01:02:09;;;;;;;9.17;2.00;;;19.00;99.90;;;;;;5012166;28;20311;-54
2022/07/26 01:04:36;;;;;;;7.90;2.10;;;18.90;99.90;;;;;;5012478;28;20262;-53
2022/07/26 01:07:03;;;;;;;5.53;1.77;;;18.90;99.90;;;;;;5011685;28;20290;-54
2022/07/26 01:09:42;;;;;;;7.33;1.93;;;19.00;99.90;;;;;;4998710;28;20254;-54
2022/07/26 01:12:12;;;;;;;6.47;2.20;;;18.90;99.90;;;;;;5015270;28;20200;-53
2022/07/26 01:14:43;;;;;;;7.87;1.87;;;18.90;99.90;;;;;;5013426;28;20358;-53
2022/07/26 01:17:11;;;;;;;5.43;2.50;;;18.90;99.90;;;;;;5011967;28;20277;-53
2022/07/26 01:19:38;;;;;;;8.80;2.30;;;18.80;99.90;;;;;;5012958;28;20285;-53
2022/07/26 01:22:08;;;;;;;11.87;2.40;;;18.80;99.90;;;;;;5011422;28;20216;-53
2022/07/26 01:24:41;;;;;;;12.77;2.40;;;18.80;99.90;;;;;;5011947;28;20214;-54
2022/07/26 01:27:08;;;;;;;6.57;1.97;;;18.90;99.90;;;;;;5011897;28;20205;-54
2022/07/26 01:29:35;;;;;;;7.70;2.40;;;18.80;99.90;;;;;;5014393;28;20223;-53
2022/07/26 01:32:04;;;;;;;7.97;3.57;;;18.70;99.90;;;;;;5012631;28;20236;-53
2022/07/26 01:34:33;;;;;;;5.97;2.20;;;18.70;99.90;;;;;;5013227;28;20208;-53
2022/07/26 01:37:00;;;;;;;8.23;2.33;;;18.70;99.90;;;;;;5012480;28;20770;-53
2022/07/26 01:39:27;;;;;;;9.30;2.30;;;18.70;99.90;;;;;;5010698;28;20216;-54
2022/07/26 01:41:55;;;;;;;4.63;2.23;;;18.60;99.90;;;;;;5011159;28;20634;-52
2022/07/26 01:44:23;;;;;;;4.67;1.93;;;18.60;99.90;;;;;;5010888;28;20289;-54
2022/07/26 01:46:50;;;;;;;9.13;2.07;;;18.80;99.90;;;;;;5011056;28;20262;-53
2022/07/26 01:49:17;;;;;;;7.37;2.00;;;18.70;99.90;;;;;;5012442;28;20291;-53
2022/07/26 01:51:44;;;;;;;6.90;2.00;;;18.70;99.90;;;;;;5006873;28;20591;-52
2022/07/26 01:54:11;;;;;;;9.97;2.50;;;18.60;99.90;;;;;;5008941;28;20231;-53
2022/07/26 01:56:38;;;;;;;11.73;2.60;;;18.60;99.90;;;;;;5008211;28;20550;-53
2022/07/26 01:59:05;;;;;;;11.23;3.27;;;18.70;99.90;;;;;;5011411;28;20594;-52
2022/07/26 02:01:32;;;;;;;7.33;2.00;;;18.50;99.90;;;;;;5021971;28;20195;-53
2022/07/26 02:04:07;;;;;;;6.93;2.00;;;18.60;99.90;;;;;;5008810;28;20581;-53
2022/07/26 02:06:35;;;;;;;7.53;2.07;;;18.50;99.90;;;;;;4995941;28;20231;-54
2022/07/26 02:09:03;;;;;;;9.70;3.33;;;18.50;99.90;;;;;;5009206;28;20222;-54
2022/07/26 02:11:33;;;;;;;9.63;2.37;;;18.50;99.90;;;;;;5008991;28;20298;-52
2022/07/26 02:14:02;;;;;;;8.37;3.07;;;18.50;99.90;;;;;;5011094;28;20198;-54
2022/07/26 02:16:29;;;;;;;8.67;2.57;;;18.50;99.90;;;;;;5007997;28;20204;-53
2022/07/26 02:18:56;;;;;;;10.93;2.50;;;18.70;99.90;;;;;;5009048;28;20209;-53
2022/07/26 02:21:23;;;;;;;10.93;2.60;;;18.70;99.90;;;;;;5023235;28;20740;-53
2022/07/26 02:23:50;;;;;;;9.50;2.37;;;18.70;99.90;;;;;;5005956;28;20267;-53
2022/07/26 02:26:17;;;;;;;13.43;2.80;;;18.60;99.90;;;;;;5009634;28;20351;-54
2022/07/26 02:28:44;;;;;;;15.13;2.80;;;18.50;99.90;;;;;;5007956;28;20787;-55
2022/07/26 02:31:11;;;;;;;8.87;2.67;;;18.40;99.90;;;;;;5008606;28;20266;-52
2022/07/26 02:33:41;;;;;;;6.53;2.13;;;18.40;99.90;;;;;;5006254;28;20422;-53
2022/07/26 02:36:08;;;;;;;10.97;2.80;;;18.40;99.90;;;;;;5008863;28;20878;-53
2022/07/26 02:38:35;;;;;;;7.13;2.50;;;18.50;99.90;;;;;;5009767;28;20211;-54
2022/07/26 02:41:06;;;;;;;9.33;3.23;;;18.50;99.90;;;;;;5007752;28;20570;-53
2022/07/26 02:43:33;;;;;;;11.50;2.40;;;18.40;99.90;;;;;;5010385;28;20250;-52
2022/07/26 02:46:00;;;;;;;9.67;3.10;;;18.30;99.90;;;;;;5009666;28;20574;-53
2022/07/26 02:48:30;;;;;;;11.67;2.63;;;18.30;99.90;;;;;;5006208;28;20701;-53
2022/07/26 02:50:57;;;;;;;12.30;3.07;;;18.30;99.90;;;;;;5010704;28;20674;-52
2022/07/26 02:53:24;;;;;;;10.20;2.83;;;18.40;99.90;;;;;;5010711;28;20278;-53
2022/07/26 02:55:51;;;;;;;6.83;2.90;;;18.40;99.90;;;;;;5012398;28;20209;-54
2022/07/26 02:58:20;;;;;;;12.40;3.93;;;18.30;99.90;;;;;;5007284;28;20216;-54
2022/07/26 03:00:47;;;;;;;14.10;3.87;;;18.40;99.90;;;;;;5008352;28;20204;-53
2022/07/26 03:03:17;;;;;;;11.57;3.07;;;18.40;99.90;;;;;;4657458;28;9999677;-52
2022/07/26 03:05:44;;;;;;;8.37;2.83;;;18.50;99.90;;;;;;5015915;28;20197;-54
2022/07/26 03:08:11;;;;;;;7.23;2.43;;;18.40;99.90;;;;;;5013271;28;20298;-53
2022/07/26 03:10:38;;;;;;;12.23;2.87;;;18.40;99.90;;;;;;5012000;28;20235;-53
2022/07/26 03:13:06;;;;;;;10.93;3.07;;;18.30;99.90;;;;;;5011409;28;20651;-54
2022/07/26 03:15:33;;;;;;;9.97;3.23;;;18.30;99.90;;;;;;5027623;28;20721;-51
2022/07/26 03:18:00;;;;;;;10.63;2.70;;;18.40;99.90;;;;;;5013736;28;20200;-54
2022/07/26 03:20:27;;;;;;;7.33;2.80;;;18.30;99.90;;;;;;5012071;28;20208;-53
2022/07/26 03:22:54;;;;;;;11.13;2.47;;;18.30;99.90;;;;;;5013429;28;20272;-55
2022/07/26 03:25:22;;;;;;;10.37;3.57;;;18.30;99.90;;;;;;5010018;28;20732;-53
2022/07/26 03:27:49;;;;;;;9.00;2.50;;;18.30;99.90;;;;;;5014063;28;20223;-54
2022/07/26 03:30:16;;;;;;;10.47;2.70;;;18.20;99.90;;;;;;5013409;28;20228;-53
2022/07/26 03:32:52;;;;;;;12.97;3.13;;;18.20;99.90;;;;;;5014218;28;20201;-54
2022/07/26 03:35:20;;;;;;;6.73;2.50;;;18.30;99.90;;;;;;5012576;28;20205;-54
2022/07/26 03:37:51;;;;;;;10.93;3.40;;;18.30;99.90;;;;;;5013971;28;20197;-54
2022/07/26 03:40:18;;;;;;;12.60;3.17;;;18.30;99.90;;;;;;5013295;28;20578;-53
2022/07/26 03:42:46;;;;;;;9.80;3.13;;;18.40;99.90;;;;;;5013381;28;20199;-53
2022/07/26 03:45:14;;;;;;;7.70;2.93;;;18.60;99.90;;;;;;4998087;28;20228;-55
2022/07/26 03:47:45;;;;;;;11.63;3.00;;;18.60;99.90;;;;;;5009573;28;20244;-53
2022/07/26 03:50:12;;;;;;;7.20;2.40;;;18.60;99.90;;;;;;5011634;28;20688;-54
2022/07/26 03:52:39;;;;;;;11.87;2.67;;;18.60;99.90;;;;;;5015616;28;20232;-54
2022/07/26 03:57:55;;;;;;;8.70;2.50;;;18.50;99.90;;;;;;5010463;28;20216;-54
2022/07/26 04:00:25;;;;;;;7.47;2.80;;;18.50;99.90;;;;;;5010275;28;20307;-54
2022/07/26 04:02:52;;;;;;;6.17;2.70;;;18.50;99.90;;;;;;5010903;28;20293;-54
2022/07/26 04:05:19;;;;;;;11.90;3.23;;;18.50;99.90;;;;;;5018962;28;20287;-54
2022/07/26 04:07:49;;;;;;;8.40;2.83;;;18.50;99.90;;;;;;5029336;28;20216;-54
2022/07/26 04:10:22;;;;;;;7.97;2.10;;;18.50;99.90;;;;;;5013466;28;20244;-53
2022/07/26 04:12:49;;;;;;;7.37;2.43;;;18.30;99.90;;;;;;5017658;28;20205;-53
2022/07/26 04:15:17;;;;;;;9.53;2.40;;;18.40;99.90;;;;;;5013214;28;20205;-53
2022/07/26 04:17:47;;;;;;;6.40;2.93;;;18.50;99.90;;;;;;5011380;28;20663;-54
2022/07/26 04:20:14;;;;;;;10.17;2.43;;;18.50;99.90;;;;;;5000240;28;20209;-53
2022/07/26 04:22:42;;;;;;;9.67;2.30;;;18.50;99.90;;;;;;5013214;28;20205;-54
2022/07/26 04:25:09;;;;;;;10.17;3.33;;;18.60;99.90;;;;;;5044310;28;22363;-53
2022/07/26 04:27:37;;;;;;;10.47;2.87;;;18.50;99.90;;;;;;5011369;28;20247;-54
2022/07/26 04:30:05;;;;;;;7.10;2.63;;;18.60;99.90;;;;;;5012865;28;20275;-54
2022/07/26 04:32:40;;;;;;;10.60;3.00;;;18.50;99.90;;;;;;5010825;28;20680;-53
2022/07/26 04:35:08;;;;;;;7.07;2.87;;;18.50;99.90;;;;;;5012366;28;20645;-54
2022/07/26 04:37:40;;;;;;;8.17;2.63;;;18.50;99.90;;;;;;5013079;28;20232;-54
2022/07/26 04:40:08;;;;;;;6.83;2.40;;;18.50;99.90;;;;;;5011252;28;20651;-54
2022/07/26 04:42:35;;;;;;;9.03;3.73;;;18.70;99.90;;;;;;5010359;28;20205;-53
2022/07/26 04:45:04;;;;;;;8.60;3.40;;;18.50;99.90;;;;;;5010346;28;20255;-53
2022/07/26 04:47:35;;;;;;;7.33;3.20;;;18.40;99.90;;;;;;5011212;28;20235;-54
2022/07/26 04:50:03;;;;;;;7.97;2.90;;;18.30;99.90;;;;;;5010910;28;20233;-53
2022/07/26 04:52:30;;;;;;;4.90;2.27;;;18.30;99.90;;;;;;5011955;28;20209;-52
2022/07/26 04:54:59;;;;;;;10.33;2.90;;;18.40;99.90;;;;;;5012425;28;20293;-53
2022/07/26 04:57:26;;;;;;;6.13;2.90;;;18.30;99.90;;;;;;5012619;28;20220;-54
2022/07/26 04:59:53;;;;;;;17.83;4.60;;;18.30;99.90;;;;;;5012141;28;20212;-53
2022/07/26 05:02:41;;;;;;;7.37;3.20;;;18.20;99.90;;;;;;5006657;28;20217;-52
2022/07/26 05:05:08;;;;;;;7.03;3.23;;;18.10;99.90;;;;;;5027447;28;20259;-54
2022/07/26 05:07:42;;;;;;;5.53;3.03;;;18.20;99.90;;;;;;5012439;28;20206;-54
2022/07/26 05:10:11;;;;;;;9.70;3.80;;;18.30;99.90;;;;;;5015251;28;20420;-53
2022/07/26 05:12:38;;;;;;;6.10;2.80;;;18.40;99.90;;;;;;5007503;28;20223;-53
2022/07/26 05:15:06;;;;;;;10.50;3.00;;;18.40;99.90;;;;;;5024307;28;20240;-54
2022/07/26 05:17:41;;;;;;;12.27;3.37;;;18.40;99.90;;;;;;5009938;28;20694;-56
2022/07/26 05:20:11;;;;;;;9.93;3.10;;;18.40;99.90;;;;;;5003598;28;20684;-53
2022/07/26 05:22:38;;;;;;;6.43;2.80;;;18.40;99.90;;;;;;5010765;28;20204;-53
2022/07/26 05:25:06;;;;;;;6.60;2.97;;;18.40;99.90;;;;;;5008432;28;20206;-53
2022/07/26 05:27:33;;;;;;;5.13;2.97;;;18.30;99.90;;;;;;5008866;28;20213;-53
2022/07/26 05:30:00;;;;;;;7.37;3.13;;;18.40;99.90;;;;;;5011655;28;20251;-54
2022/07/26 05:32:28;;;;;;;10.87;2.70;;;18.40;99.90;;;;;;5006249;28;20220;-52
2022/07/26 05:34:54;;;;;;;4.87;3.03;;;18.50;99.90;;;;;;5011912;28;20197;-53
2022/07/26 05:37:22;;;;;;;8.93;3.20;;;18.60;99.90;;;;;;5023153;28;20205;-54
2022/07/26 05:39:49;;;;;;;8.00;3.17;;;18.70;99.90;;;;;;5009637;28;20278;-53
2022/07/26 05:42:19;;;;;;;5.37;4.07;;;18.70;99.90;;;;;;5008197;28;20287;-54
2022/07/26 05:44:46;;;;;;;5.07;2.97;;;18.70;99.90;;;;;;5010155;28;20236;-54
2022/07/26 05:47:13;;;;;;;5.47;2.93;;;18.60;99.90;;;;;;5006503;28;20204;-53
2022/07/26 05:49:39;;;;;;;11.40;3.37;;;18.60;99.90;;;;;;5011617;28;20245;-53
2022/07/26 05:52:07;;;;;;;7.70;2.97;;;18.60;99.90;;;;;;5010987;28;20211;-54
2022/07/26 05:54:35;;;;;;;8.47;2.83;;;18.60;99.90;;;;;;5009032;28;20243;-53
2022/07/26 05:57:02;;;;;;;5.50;3.30;;;18.80;99.90;;;;;;5006285;28;20207;-53
2022/07/26 05:59:32;;;;;;;6.73;3.10;;;18.80;99.90;;;;;;5009641;28;20648;-53
2022/07/26 06:01:59;;;;;;;5.33;2.80;;;18.90;99.90;;;;;;5005817;28;20647;-54
2022/07/26 06:04:28;;;;;;;6.90;2.83;;;18.90;99.90;;;;;;5008217;28;20209;-54
2022/07/26 06:06:55;;;;;;;8.33;3.10;;;18.90;99.90;;;;;;5006854;28;20219;-55
2022/07/26 06:09:25;;;;;;;6.27;3.10;;;18.90;99.90;;;;;;5008507;28;20200;-54
2022/07/26 06:11:52;;;;;;;6.37;2.67;;;19.00;99.90;;;;;;5011792;28;20275;-53
2022/07/26 06:14:20;;;;;;;6.43;2.27;;;19.10;99.90;;;;;;5009122;28;20304;-53
2022/07/26 06:16:47;;;;;;;10.60;3.17;;;19.10;99.90;;;;;;5013121;28;20641;-53
2022/07/26 06:19:17;;;;;;;7.27;3.57;;;19.10;99.90;;;;;;5021186;28;20201;-55
2022/07/26 06:21:47;;;;;;;4.40;2.77;;;19.10;99.90;;;;;;5007594;28;21671;-52
2022/07/26 06:24:14;;;;;;;5.60;2.80;;;19.20;99.90;;;;;;5009544;28;20196;-55
2022/07/26 06:26:41;;;;;;;4.57;2.60;;;19.30;99.90;;;;;;5008431;28;20205;-53
2022/07/26 06:29:08;;;;;;;5.17;2.63;;;19.40;99.90;;;;;;5026756;28;20197;-54
2022/07/26 06:31:36;;;;;;;7.57;2.77;;;19.40;99.90;;;;;;5012388;28;20455;-53
2022/07/26 06:34:03;;;;;;;7.60;2.97;;;19.50;99.90;;;;;;5007184;28;20653;-52
2022/07/26 06:36:30;;;;;;;7.83;3.47;;;19.50;99.90;;;;;;5007222;28;20680;-54
2022/07/26 06:38:57;;;;;;;5.10;2.90;;;19.30;99.90;;;;;;5042190;28;20656;-54
2022/07/26 06:41:24;;;;;;;10.43;3.00;;;19.40;99.90;;;;;;5009747;28;20557;-54
2022/07/26 06:43:52;;;;;;;6.00;2.93;;;19.50;99.90;;;;;;5010288;28;20672;-54
2022/07/26 06:46:35;;;;;;;5.50;3.23;;;19.40;99.90;;;;;;4986143;28;20226;-54
2022/07/26 06:49:02;;;;;;;6.50;2.80;;;19.40;99.90;;;;;;5020828;28;20883;-53
2022/07/26 06:51:31;;;;;;;5.83;3.00;;;19.60;99.90;;;;;;5003664;28;20252;-53
2022/07/26 06:53:59;;;;;;;7.90;2.80;;;19.60;99.90;;;;;;5009741;28;20626;-55
2022/07/26 06:56:26;;;;;;;5.03;2.43;;;19.70;99.90;;;;;;5005768;28;20212;-54
2022/07/26 06:58:55;;;;;;;6.03;2.60;;;19.80;99.90;;;;;;5008090;28;20225;-54
2022/07/26 07:01:22;;;;;;;4.50;2.27;;;19.80;99.90;;;;;;5005642;28;20201;-53
2022/07/26 07:04:09;;;;;;;5.93;2.87;;;19.80;99.90;;;;;;5008918;28;20241;-53
2022/07/26 07:06:37;;;;;;;5.10;2.43;;;19.60;99.90;;;;;;5024757;28;20200;-53
2022/07/26 07:09:04;;;;;;;7.43;2.67;;;19.50;99.90;;;;;;5010286;28;20201;-53
2022/07/26 07:11:34;;;;;;;6.80;3.23;;;19.50;99.90;;;;;;5003110;28;20224;-53
2022/07/26 07:14:02;;;;;;;7.30;2.37;;;19.40;99.90;;;;;;5006640;28;20208;-53
2022/07/26 07:16:29;;;;;;;4.33;2.37;;;19.40;99.90;;;;;;5009388;28;20201;-52
2022/07/26 07:18:56;;;;;;;5.77;2.20;;;19.50;99.90;;;;;;5003012;28;20369;-52
2022/07/26 07:21:23;;;;;;;4.23;1.47;;;19.50;99.90;;;;;;4998849;28;20208;-52
2022/07/26 07:23:53;;;;;;;1.30;0.80;;;19.60;99.90;;;;;;5006185;28;20219;-53
2022/07/26 07:26:20;;;;;;;1.10;0.60;;;19.60;99.90;;;;;;5012782;28;20227;-54
2022/07/26 07:28:47;;;;;;;0.63;0.30;;;19.60;99.90;;;;;;5003424;28;20744;-52
2022/07/26 07:31:14;;;;;;;1.70;0.60;;;19.50;99.90;;;;;;5012331;28;20222;-53
2022/07/26 07:33:41;;;;;;;0.53;0.40;;;19.50;99.90;;;;;;5006302;28;20232;-53
2022/07/26 07:36:20;;;;;;;1.80;0.40;;;19.50;99.90;;;;;;5013679;28;20304;-54
2022/07/26 07:38:47;;;;;;;1.70;0.30;;;19.70;99.90;;;;;;5018761;28;20214;-53
2022/07/26 07:41:15;;;;;;;0.60;0.40;;;19.70;99.90;;;;;;5008252;28;20627;-54
2022/07/26 07:43:42;;;;;;;0.67;0.40;;;19.70;99.90;;;;;;5011286;28;20727;-53
2022/07/26 07:46:09;;;;;;;1.10;0.40;;;20.00;99.90;;;;;;5008156;28;20291;-52
2022/07/26 07:48:37;;;;;;;1.00;0.40;;;20.00;99.90;;;;;;5009545;28;20200;-55
2022/07/26 07:51:12;;;;;;;1.17;0.90;;;20.30;99.90;;;;;;5015304;28;20220;-54
2022/07/26 07:53:39;;;;;;;1.20;0.60;;;20.60;99.90;;;;;;5014700;28;20324;-53
2022/07/26 07:56:07;;;;;;;1.57;0.77;;;20.40;99.90;;;;;;5014831;28;20672;-53
2022/07/26 07:58:33;;;;;;;1.47;1.30;;;20.70;99.90;;;;;;5018855;28;20203;-52
2022/07/26 08:01:00;;;;;;;1.93;0.80;;;21.00;99.90;;;;;;5023687;28;20206;-53
2022/07/26 08:03:28;;;;;;;0.70;0.60;;;20.80;99.90;;;;;;5009438;28;20623;-53
2022/07/26 08:06:07;;;;;;;1.13;0.90;;;20.80;99.90;;;;;;5009235;28;20286;-53
2022/07/26 08:08:34;;;;;;;1.80;0.70;;;20.60;99.90;;;;;;5012502;28;20257;-54
2022/07/26 08:11:05;;;;;;;2.47;0.80;;;20.60;99.90;;;;;;5010507;28;20616;-52
2022/07/26 08:13:34;;;;;;;1.63;0.70;;;20.70;99.90;;;;;;5011674;28;20207;-53
2022/07/26 08:16:03;;;;;;;1.07;0.47;;;20.40;99.90;;;;;;5013765;28;20205;-54
2022/07/26 08:18:35;;;;;;;1.37;0.40;;;20.70;99.90;;;;;;5008214;28;20669;-54
2022/07/26 08:21:14;;;;;;;3.03;0.60;;;20.70;99.90;;;;;;5009881;28;20296;-55
2022/07/26 08:23:41;;;;;;;1.03;0.47;;;20.60;99.90;;;;;;5016656;28;20275;-53
2022/07/26 08:26:09;;;;;;;3.97;0.77;;;20.60;99.90;;;;;;5015261;28;20204;-54
2022/07/26 08:28:36;;;;;;;2.20;0.70;;;21.00;99.90;;;;;;5008855;28;20263;-53
2022/07/26 08:31:14;;;;;;;4.73;1.27;;;21.20;99.90;;;;;;5010140;28;20236;-54
2022/07/26 08:33:42;;;;;;;2.43;0.70;;;21.00;99.90;;;;;;5010268;28;20773;-54
2022/07/26 08:36:13;;;;;;;3.90;0.90;;;20.90;99.90;;;;;;5007441;28;20197;-55
2022/07/26 08:38:40;;;;;;;3.03;1.00;;;21.40;99.90;;;;;;5010672;28;20209;-53
2022/07/26 08:41:07;;;;;;;2.93;0.90;;;21.40;99.90;;;;;;5011703;28;20209;-54
2022/07/26 08:43:35;;;;;;;2.53;0.87;;;21.40;99.90;;;;;;5006678;28;20695;-52
2022/07/26 08:46:21;;;;;;;1.50;0.80;;;21.80;99.90;;;;;;5006098;28;20201;-53
2022/07/26 08:48:52;;;;;;;1.97;0.70;;;21.60;99.90;;;;;;5005790;28;20205;-54
2022/07/26 08:51:25;;;;;;;2.67;0.90;;;21.40;99.90;;;;;;5006972;28;20235;-53
2022/07/26 08:53:57;;;;;;;5.73;0.90;;;20.70;99.90;;;;;;5007946;28;20706;-53
2022/07/26 08:56:36;;;;;;;1.77;0.57;;;20.50;99.90;;;;;;5018177;28;20554;-52
2022/07/26 08:59:04;;;;;;;1.90;0.60;;;20.20;99.90;;;;;;5011731;28;20209;-54
2022/07/26 09:01:33;;;;;;;2.07;0.50;;;20.00;99.90;;;;;;5013419;28;20589;-54
2022/07/26 09:04:18;;;;;;;1.37;0.53;;;20.20;99.90;;;;;;5006020;28;20216;-53
2022/07/26 09:07:06;;;;;;;1.97;0.50;;;19.90;99.90;;;;;;5016234;28;20235;-53
2022/07/26 09:09:38;;;;;;;2.67;0.73;;;20.20;99.90;;;;;;5012390;28;20731;-55
2022/07/26 09:12:18;;;;;;;1.63;0.60;;;20.10;99.90;;;;;;5007656;28;20283;-54
2022/07/26 09:14:47;;;;;;;0.77;0.50;;;20.20;99.90;;;;;;5009503;28;20575;-53
2022/07/26 09:17:17;;;;;;;1.20;0.50;;;20.50;99.90;;;;;;5009806;28;21616;-53
2022/07/26 09:19:45;;;;;;;2.33;0.50;;;21.00;99.90;;;;;;5012591;28;20209;-54
2022/07/26 09:22:14;;;;;;;1.77;0.50;;;20.70;99.90;;;;;;5009783;28;20318;-53
2022/07/26 09:24:44;;;;;;;2.87;0.50;;;20.50;99.90;;;;;;5014280;28;20743;-53
2022/07/26 09:27:15;;;;;;;1.70;0.50;;;20.50;99.90;;;;;;5009788;28;20287;-54
2022/07/26 09:29:46;;;;;;;1.73;0.47;;;20.70;99.90;;;;;;5014437;28;20251;-54
2022/07/26 09:32:15;;;;;;;1.47;0.30;;;20.30;99.90;;;;;;5008215;28;20246;-54
2022/07/26 09:34:48;;;;;;;2.27;0.60;;;19.80;99.90;;;;;;5009946;28;20219;-53
2022/07/26 09:37:33;;;;;;;0.70;0.40;;;19.90;99.90;;;;;;5012378;28;20294;-54
2022/07/26 09:40:03;;;;;;;1.83;0.50;;;19.80;99.90;;;;;;5014707;28;20201;-54
2022/07/26 09:42:30;;;;;;;2.40;0.60;;;20.00;99.90;;;;;;5012429;28;20233;-54
2022/07/26 09:44:58;;;;;;;1.13;0.40;;;20.30;99.90;;;;;;5011774;28;20602;-52
2022/07/26 09:47:43;;;;;;;3.60;0.60;;;20.70;99.90;;;;;;5006464;28;20204;-53
2022/07/26 09:50:13;;;;;;;3.70;0.80;;;20.40;99.90;;;;;;5012351;28;20266;-53
2022/07/26 09:52:55;;;;;;;2.50;0.60;;;20.80;99.90;;;;;;5009779;28;23182;-53
2022/07/26 09:55:22;;;;;;;1.47;0.67;;;20.80;99.90;;;;;;5012211;28;20302;-55
2022/07/26 09:57:52;;;;;;;1.13;0.60;;;20.80;99.90;;;;;;5009362;28;20291;-53
2022/07/26 10:00:19;;;;;;;3.37;0.80;;;21.50;99.90;;;;;;5011062;28;20232;-52
2022/07/26 10:02:46;;;;;;;2.33;1.00;;;21.90;99.90;;;;;;5008697;28;20297;-52
2022/07/26 10:05:14;;;;;;;2.70;0.53;;;22.10;99.90;;;;;;5012244;28;20208;-54
2022/07/26 10:07:41;;;;;;;1.90;0.70;;;21.80;99.90;;;;;;4994819;28;20252;-54
2022/07/26 10:10:14;;;;;;;1.90;1.00;;;22.10;99.90;;;;;;5008822;28;20209;-54
2022/07/26 10:12:44;;;;;;;2.90;1.00;;;22.10;99.90;;;;;;5006377;28;20252;-54
2022/07/26 10:15:38;;;;;;;2.80;0.67;;;21.90;99.90;;;;;;5003830;28;20240;-53
2022/07/26 10:18:08;;;;;;;3.93;0.97;;;22.20;99.90;;;;;;5019459;28;20778;-53
2022/07/26 10:20:44;;;;;;;2.20;0.60;;;22.00;99.90;;;;;;5006576;28;20203;-54
2022/07/26 10:23:34;;;;;;;1.87;0.80;;;22.20;99.90;;;;;;5008134;28;20209;-53
2022/07/26 10:26:04;;;;;;;3.43;0.70;;;22.30;99.90;;;;;;5008618;28;20200;-54
2022/07/26 10:28:33;;;;;;;4.47;0.97;;;22.20;99.90;;;;;;5014969;28;20223;-54
2022/07/26 10:31:18;;;;;;;2.93;1.07;;;22.10;99.90;;;;;;5012986;28;20229;-54
2022/07/26 10:33:51;;;;;;;1.90;0.73;;;21.80;99.90;;;;;;5008352;28;20197;-56
2022/07/26 10:36:38;;;;;;;3.90;1.30;;;21.30;99.90;;;;;;5015535;28;20562;-54
2022/07/26 10:39:13;;;;;;;4.30;1.13;;;21.20;99.90;;;;;;5007983;28;20199;-53
2022/07/26 10:41:42;;;;;;;2.13;1.10;;;20.80;99.90;;;;;;5009161;28;20237;-55
2022/07/26 10:44:20;;;;;;;4.93;1.00;;;20.40;99.90;;;;;;5007164;28;20599;-54
2022/07/26 10:46:55;;;;;;;2.10;0.90;;;20.50;99.90;;;;;;5011607;28;20656;-54
2022/07/26 10:49:47;;;;;;;3.03;1.20;;;20.20;99.90;;;;;;5006375;28;20235;-54
2022/07/26 10:52:19;;;;;;;3.90;0.90;;;20.20;99.90;;;;;;5009015;28;20242;-54
2022/07/26 10:54:58;;;;;;;1.60;0.60;;;20.20;99.90;;;;;;5012327;28;20653;-54
2022/07/26 10:57:27;;;;;;;4.60;1.00;;;20.10;99.90;;;;;;5026778;28;20292;-53
2022/07/26 10:59:58;;;;;;;3.10;0.90;;;20.20;99.90;;;;;;5010415;28;20603;-54
2022/07/26 11:02:34;;;;;;;3.33;0.80;;;20.10;99.90;;;;;;5010543;28;20627;-53
2022/07/26 11:05:15;;;;;;;2.70;0.93;;;20.30;99.90;;;;;;5010745;28;20217;-54
2022/07/26 11:07:58;;;;;;;1.63;0.80;;;20.50;99.90;;;;;;5009830;28;20263;-54
2022/07/26 11:10:32;;;;;;;0.97;0.60;;;20.60;99.90;;;;;;5011195;28;20261;-53
2022/07/26 11:13:09;;;;;;;1.67;0.73;;;20.30;99.90;;;;;;5007989;28;20209;-55
2022/07/26 11:15:39;;;;;;;1.87;0.80;;;20.20;99.90;;;;;;5012682;28;20196;-55
2022/07/26 11:18:11;;;;;;;2.60;0.83;;;20.20;99.90;;;;;;5009720;28;20207;-54
2022/07/26 11:20:38;;;;;;;3.07;0.90;;;20.40;99.90;;;;;;5011422;28;20201;-53
2022/07/26 11:23:30;;;;;;;2.90;0.80;;;20.30;99.90;;;;;;5010377;28;20598;-56
2022/07/26 11:26:04;;;;;;;3.20;1.10;;;20.40;99.90;;;;;;5013327;28;20247;-52
2022/07/26 11:28:46;;;;;;;0.97;0.57;;;20.60;99.90;;;;;;5011688;28;20232;-55
2022/07/26 11:31:14;;;;;;;2.77;0.80;;;20.50;99.90;;;;;;5011153;28;20216;-54
2022/07/26 11:33:45;;;;;;;2.53;0.80;;;20.50;99.90;;;;;;5012320;28;20209;-54
2022/07/26 11:36:12;;;;;;;2.50;0.80;;;20.40;99.90;;;;;;5016575;28;20290;-54
2022/07/26 11:38:43;;;;;;;2.27;0.87;;;20.40;99.90;;;;;;4999571;28;20235;-52
2022/07/26 11:41:10;;;;;;;4.40;1.10;;;20.60;99.90;;;;;;5010489;28;20211;-54
2022/07/26 11:43:41;;;;;;;3.73;1.20;;;20.50;99.90;;;;;;5011286;28;20236;-53
2022/07/26 11:46:10;;;;;;;3.10;0.80;;;20.30;99.90;;;;;;5042195;28;20213;-55
2022/07/26 11:48:50;;;;;;;3.07;1.17;;;20.40;99.90;;;;;;5010001;28;20332;-54
2022/07/26 11:51:20;;;;;;;2.17;1.00;;;20.30;99.90;;;;;;5014557;28;20303;-54
2022/07/26 11:53:47;;;;;;;2.30;0.50;;;20.50;99.90;;;;;;5009493;28;20231;-56
2022/07/26 11:56:17;;;;;;;3.00;1.10;;;20.30;99.90;;;;;;5011283;28;20206;-54
2022/07/26 11:58:47;;;;;;;5.00;1.10;;;20.00;99.90;;;;;;5017418;28;20197;-54
2022/07/26 12:01:16;;;;;;;5.03;1.17;;;19.80;99.90;;;;;;5016379;28;20229;-55
2022/07/26 12:03:45;;;;;;;3.37;0.83;;;19.80;99.90;;;;;;5015142;28;20275;-55
2022/07/26 12:06:16;;;;;;;4.80;0.70;;;19.90;99.90;;;;;;5012714;28;20209;-53
2022/07/26 12:08:49;;;;;;;2.03;0.90;;;20.00;99.90;;;;;;5008884;28;20213;-54
2022/07/26 12:11:23;;;;;;;2.85;1.00;;;20.10;99.90;;;;;;5008993;28;20554;-55
2022/07/26 12:14:00;;;;;;;2.57;0.90;;;20.40;99.90;;;;;;5027653;28;20653;-58
2022/07/26 12:16:39;;;;;;;4.10;1.53;;;20.70;99.90;;;;;;5007101;28;20581;-55
2022/07/26 12:19:26;;;;;;;2.43;0.80;;;21.00;99.90;;;;;;5009836;28;20291;-53
2022/07/26 12:21:57;;;;;;;5.13;2.73;;;21.30;99.90;;;;;;5010746;28;20236;-54
2022/07/26 12:24:39;;;;;;;3.77;1.00;;;21.00;99.90;;;;;;5011856;28;20200;-55
2022/07/26 12:27:14;;;;;;;3.83;0.90;;;20.70;99.90;;;;;;5009127;28;20237;-54
2022/07/26 12:29:43;;;;;;;1.87;0.80;;;20.90;99.90;;;;;;5011615;28;20483;-55
2022/07/26 12:32:23;;;;;;;2.17;0.50;;;20.80;99.90;;;;;;5012087;28;20216;-54
2022/07/26 12:35:04;;;;;;;1.90;0.60;;;20.80;99.90;;;;;;5014585;28;20201;-54
2022/07/26 12:37:52;;;;;;;1.23;0.60;;;20.90;99.90;;;;;;5023040;28;20607;-55
2022/07/26 12:40:22;;;;;;;2.70;0.70;;;21.20;99.90;;;;;;5013159;28;20206;-55
2022/07/26 12:42:49;;;;;;;1.77;0.50;;;21.00;99.90;;;;;;5016853;28;20236;-55
2022/07/26 12:45:23;;;;;;;2.93;0.87;;;20.90;99.90;;;;;;5008288;28;22267;-56
2022/07/26 12:47:53;;;;;;;5.27;0.80;;;20.90;99.90;;;;;;5008781;28;20201;-55
2022/07/26 12:50:23;;;;;;;4.30;1.03;;;20.70;99.90;;;;;;5013682;28;20343;-55
2022/07/26 12:52:50;;;;;;;4.63;0.90;;;20.70;99.90;;;;;;5014130;28;20213;-54
2022/07/26 12:55:20;;;;;;;2.03;0.70;;;20.80;99.90;;;;;;5015742;28;20225;-56
2022/07/26 12:57:48;;;;;;;1.17;0.67;;;20.80;99.90;;;;;;5011955;28;20566;-55
2022/07/26 13:00:21;;;;;;;3.67;0.77;;;20.80;99.90;;;;;;5015606;28;20201;-56
2022/07/26 13:02:48;;;;;;;3.30;0.90;;;20.80;99.90;;;;;;5028237;28;20673;-56